createdAt,value
2019-05-03T00:01:52.788Z,49.71
2019-05-03T00:04:42.240Z,49.50
2019-05-03T00:07:45.619Z,49.44
2019-05-03T00:10:15.422Z,49.47
2019-05-03T00:12:45.832Z,49.47
2019-05-03T00:15:32.238Z,49.49
2019-05-03T00:18:02.233Z,49.48
2019-05-03T00:20:30.172Z,49.41
2019-05-03T00:22:58.280Z,49.43
2019-05-03T00:25:26.296Z,49.41
2019-05-03T00:27:54.326Z,49.43
2019-05-03T00:30:32.118Z,49.40
2019-05-03T00:33:04.910Z,49.51
2019-05-03T00:36:02.494Z,49.56
2019-05-03T00:38:32.557Z,49.43
2019-05-03T00:41:01.841Z,49.57
2019-05-03T00:43:31.674Z,49.53
2019-05-03T00:49:09.714Z,49.62
2019-05-03T00:51:38.532Z,49.67
2019-05-03T00:54:09.130Z,49.69
2019-05-03T00:56:42.638Z,49.53
2019-05-03T00:59:12.660Z,49.43
2019-05-03T01:01:42.483Z,49.48
2019-05-03T01:04:11.804Z,49.56
2019-05-03T01:06:42.240Z,49.41
2019-05-03T01:09:22.499Z,49.29
2019-05-03T01:14:42.196Z,49.28
2019-05-03T01:17:11.774Z,49.28
2019-05-03T01:19:40.061Z,49.28
2019-05-03T01:22:08.806Z,49.30
2019-05-03T01:24:37.129Z,49.35
2019-05-03T01:27:05.379Z,49.39
2019-05-03T01:29:33.762Z,49.20
2019-05-03T01:32:03.494Z,49.20
2019-05-03T01:34:32.641Z,49.31
2019-05-03T01:37:02.595Z,49.19
2019-05-03T01:39:33.177Z,49.17
2019-05-03T01:42:02.815Z,49.10
2019-05-03T01:44:32.693Z,49.15
2019-05-03T01:47:06.888Z,48.97
2019-05-03T01:49:42.668Z,48.93
2019-05-03T01:52:32.343Z,48.95
2019-05-03T01:55:03.105Z,48.91
2019-05-03T01:57:34.688Z,48.94
2019-05-03T02:00:03.895Z,48.84
2019-05-03T02:06:11.914Z,48.85
2019-05-03T02:08:42.959Z,48.81
2019-05-03T02:11:12.030Z,48.76
2019-05-03T02:13:46.499Z,48.69
2019-05-03T02:16:32.398Z,48.83
2019-05-03T02:22:18.999Z,48.62
2019-05-03T02:34:06.462Z,48.53
2019-05-03T02:37:02.987Z,48.79
2019-05-03T02:39:55.400Z,48.66
2019-05-03T02:42:31.996Z,48.47
2019-05-03T02:45:02.204Z,48.49
2019-05-03T02:48:07.240Z,48.53
2019-05-03T02:50:38.364Z,48.49
2019-05-03T02:53:29.221Z,48.25
2019-05-03T02:56:20.684Z,48.17
2019-05-03T02:59:02.143Z,48.24
2019-05-03T03:01:35.655Z,48.34
2019-05-03T03:04:05.315Z,48.18
2019-05-03T03:06:36.673Z,48.28
2019-05-03T03:09:05.694Z,48.45
2019-05-03T03:11:35.560Z,48.28
2019-05-03T03:14:05.833Z,48.37
2019-05-03T03:16:36.248Z,48.29
2019-05-03T03:19:06.779Z,48.27
2019-05-03T03:21:36.474Z,48.31
2019-05-03T03:24:06.167Z,48.37
2019-05-03T03:26:41.555Z,47.92
2019-05-03T03:29:05.591Z,47.90
2019-05-03T03:31:37.991Z,47.86
2019-05-03T03:34:08.316Z,47.70
2019-05-03T03:36:50.527Z,47.79
2019-05-03T03:39:06.043Z,47.77
2019-05-03T03:41:35.375Z,47.71
2019-05-03T03:44:05.854Z,47.75
2019-05-03T03:46:35.628Z,47.64
2019-05-03T03:49:03.145Z,47.45
2019-05-03T03:51:31.253Z,47.49
2019-05-03T03:53:59.958Z,47.42
2019-05-03T03:56:54.753Z,47.45
2019-05-03T03:59:08.887Z,47.46
2019-05-03T04:01:45.602Z,47.35
2019-05-03T04:04:39.045Z,47.30
2019-05-03T04:07:18.943Z,47.48
2019-05-03T04:09:52.887Z,47.45
2019-05-03T04:12:26.124Z,47.42
2019-05-03T04:15:09.576Z,47.12
2019-05-03T04:18:06.489Z,47.26
2019-05-03T04:23:26.067Z,47.34
2019-05-03T04:25:57.592Z,47.22
2019-05-03T04:28:35.968Z,47.29
2019-05-03T04:31:06.008Z,47.29
2019-05-03T04:33:35.731Z,47.10
2019-05-03T04:36:07.600Z,47.25
2019-05-03T04:38:39.017Z,47.15
2019-05-03T04:41:08.821Z,47.08
2019-05-03T04:46:48.149Z,46.92
2019-05-03T04:49:20.861Z,46.77
2019-05-03T04:51:51.224Z,46.97
2019-05-03T04:54:28.852Z,46.85
2019-05-03T04:56:58.621Z,46.64
2019-05-03T04:59:29.023Z,46.72
2019-05-03T05:01:58.844Z,46.56
2019-05-03T05:04:50.750Z,46.53
2019-05-03T05:07:25.726Z,46.57
2019-05-03T05:09:59.834Z,46.21
2019-05-03T05:12:46.580Z,46.22
2019-05-03T05:15:23.099Z,45.97
2019-05-03T05:18:09.839Z,46.02
2019-05-03T05:20:55.491Z,46.02
2019-05-03T05:23:27.546Z,45.82
2019-05-03T05:26:09.660Z,45.97
2019-05-03T05:28:49.096Z,46.05
2019-05-03T05:31:17.391Z,46.09
2019-05-03T05:33:47.847Z,46.04
2019-05-03T05:36:17.819Z,46.10
2019-05-03T05:38:51.141Z,45.98
2019-05-03T05:41:40.076Z,45.79
2019-05-03T05:44:08.147Z,45.74
2019-05-03T05:46:45.346Z,45.86
2019-05-03T05:49:15.703Z,45.85
2019-05-03T05:51:44.453Z,46.11
2019-05-03T05:54:30.471Z,46.53
2019-05-03T06:03:29.733Z,47.83
2019-05-03T06:06:00.604Z,47.70
2019-05-03T06:15:00.102Z,47.43
2019-05-03T06:17:49.261Z,47.23
2019-05-03T06:20:35.887Z,47.18
2019-05-03T06:23:11.190Z,47.58
2019-05-03T06:26:10.282Z,48.03
2019-05-03T07:03:27.754Z,44.43
2019-05-03T07:12:10.918Z,44.44
2019-05-03T07:23:55.169Z,42.80
2019-05-03T07:26:25.210Z,42.43
2019-05-03T07:28:54.528Z,42.01
2019-05-03T07:31:22.816Z,41.97
2019-05-03T07:33:50.802Z,41.79
2019-05-03T07:36:18.792Z,41.65
2019-05-03T07:38:46.858Z,41.48
2019-05-03T07:41:15.020Z,41.25
2019-05-03T07:43:44.931Z,41.17
2019-05-03T07:46:14.710Z,40.87
2019-05-03T07:48:42.608Z,41.26
2019-05-03T07:51:10.617Z,40.93
2019-05-03T07:53:38.661Z,40.91
2019-05-03T07:56:10.949Z,41.14
2019-05-03T07:58:39.638Z,40.76
2019-05-03T08:01:11.301Z,40.69
2019-05-03T08:03:39.310Z,40.71
2019-05-03T08:06:07.320Z,40.76
2019-05-03T08:08:35.578Z,40.37
2019-05-03T08:11:05.336Z,40.50
2019-05-03T08:13:35.389Z,40.56
2019-05-03T08:16:03.130Z,40.54
2019-05-03T08:18:35.295Z,40.49
2019-05-03T08:21:00.884Z,40.36
2019-05-03T08:23:30.337Z,40.40
2019-05-03T08:25:58.544Z,40.47
2019-05-03T08:28:26.515Z,40.51
2019-05-03T08:31:31.846Z,40.34
2019-05-03T08:34:12.078Z,40.26
2019-05-03T08:37:15.331Z,40.02
2019-05-03T08:39:44.744Z,39.88
2019-05-03T08:42:18.426Z,39.88
2019-05-03T08:44:46.435Z,39.63
2019-05-03T08:47:15.530Z,39.44
2019-05-03T08:49:44.989Z,39.49
2019-05-03T08:52:15.286Z,39.45
2019-05-03T08:54:44.749Z,39.57
2019-05-03T08:57:14.797Z,39.47
2019-05-03T08:59:44.494Z,39.16
2019-05-03T09:02:13.798Z,39.20
2019-05-03T09:04:43.259Z,39.28
2019-05-03T09:07:11.610Z,38.97
2019-05-03T09:10:05.289Z,38.77
2019-05-03T09:12:51.115Z,39.00
2019-05-03T09:15:21.598Z,39.16
2019-05-03T09:17:48.953Z,39.25
2019-05-03T09:20:16.950Z,40.76
2019-05-03T09:22:45.385Z,40.25
2019-05-03T09:25:15.452Z,39.95
2019-05-03T09:27:44.685Z,40.03
2019-05-03T09:30:14.477Z,40.09
2019-05-03T09:32:44.722Z,39.86
2019-05-03T09:35:26.786Z,39.76
2019-05-03T09:40:45.971Z,39.41
2019-05-03T09:43:15.103Z,39.56
2019-05-03T09:45:45.159Z,39.42
2019-05-03T09:48:15.047Z,39.20
2019-05-03T09:50:50.750Z,39.44
2019-05-03T09:53:30.441Z,39.39
2019-05-03T09:55:59.963Z,39.09
2019-05-03T09:58:27.957Z,38.86
2019-05-03T10:00:56.152Z,38.75
2019-05-03T10:03:24.199Z,38.60
2019-05-03T10:05:55.329Z,38.55
2019-05-03T10:08:25.260Z,38.70
2019-05-03T10:11:11.376Z,38.51
2019-05-03T10:13:42.315Z,38.35
2019-05-03T10:16:10.300Z,38.45
2019-05-03T10:18:41.542Z,38.47
2019-05-03T10:21:14.825Z,38.78
2019-05-03T10:23:45.510Z,38.41
2019-05-03T10:26:14.965Z,38.07
2019-05-03T10:28:43.303Z,37.67
2019-05-03T10:31:14.701Z,37.64
2019-05-03T10:33:50.258Z,37.54
2019-05-03T10:36:18.315Z,37.55
2019-05-03T10:38:47.908Z,37.76
2019-05-03T10:41:35.197Z,37.62
2019-05-03T10:44:09.330Z,37.54
2019-05-03T10:49:40.442Z,37.71
2019-05-03T10:52:10.194Z,37.62
2019-05-03T10:54:38.442Z,37.81
2019-05-03T10:57:15.920Z,37.71
2019-05-03T10:59:44.795Z,37.82
2019-05-03T11:02:20.718Z,37.76
2019-05-03T11:04:48.764Z,38.00
2019-05-03T11:07:16.812Z,38.12
2019-05-03T11:09:49.518Z,38.30
2019-05-03T11:12:15.151Z,38.27
2019-05-03T11:14:45.397Z,38.27
2019-05-03T11:17:14.829Z,38.48
2019-05-03T11:19:42.783Z,38.25
2019-05-03T11:22:10.771Z,38.23
2019-05-03T11:24:38.826Z,38.24
2019-05-03T11:27:12.204Z,38.25
2019-05-03T11:29:40.259Z,38.36
2019-05-03T11:32:21.456Z,38.47
2019-05-03T11:34:58.145Z,38.39
2019-05-03T11:37:51.013Z,38.29
2019-05-03T11:40:19.014Z,38.31
2019-05-03T11:42:47.685Z,38.39
2019-05-03T11:45:15.901Z,38.55
2019-05-03T11:47:45.768Z,38.92
2019-05-03T11:50:14.831Z,38.71
2019-05-03T11:52:43.076Z,38.79
2019-05-03T11:55:12.183Z,39.31
2019-05-03T11:57:40.529Z,39.07
2019-05-03T12:00:10.267Z,39.62
2019-05-03T12:02:55.461Z,40.49
2019-05-03T12:05:25.614Z,40.72
2019-05-03T12:07:54.761Z,41.73
2019-05-03T12:10:36.031Z,46.68
2019-05-03T12:12:59.175Z,46.85
2019-05-03T12:15:27.182Z,45.98
2019-05-03T12:17:59.211Z,49.54
2019-05-03T12:20:29.279Z,52.32
2019-05-03T12:22:57.666Z,52.02
2019-05-03T12:25:28.555Z,57.17
2019-05-03T12:27:56.030Z,56.89
2019-05-03T12:30:27.779Z,55.75
2019-05-03T12:32:57.530Z,55.18
2019-05-03T12:35:35.542Z,55.48
2019-05-03T12:38:05.344Z,53.66
2019-05-03T12:40:45.596Z,55.79
2019-05-03T12:43:15.317Z,55.56
2019-05-03T12:45:45.161Z,56.98
2019-05-03T12:48:15.371Z,57.05
2019-05-03T12:50:45.315Z,56.53
2019-05-03T12:53:15.199Z,55.14
2019-05-03T12:55:43.410Z,56.95
2019-05-03T12:58:11.537Z,56.73
2019-05-03T13:00:56.929Z,55.78
2019-05-03T13:03:29.565Z,55.72
2019-05-03T13:05:57.585Z,57.51
2019-05-03T13:08:27.483Z,54.05
2019-05-03T13:10:55.763Z,52.47
2019-05-03T13:13:24.963Z,53.88
2019-05-03T13:15:54.909Z,52.93
2019-05-03T13:18:25.092Z,54.69
2019-05-03T13:20:52.656Z,51.65
2019-05-03T13:23:20.694Z,54.34
2019-05-03T13:25:48.775Z,54.09
2019-05-03T13:28:16.792Z,53.97
2019-05-03T13:30:45.351Z,54.97
2019-05-03T13:33:15.144Z,53.40
2019-05-03T13:35:44.658Z,53.03
2019-05-03T13:38:12.860Z,54.38
2019-05-03T13:40:40.948Z,56.48
2019-05-03T13:43:08.997Z,54.60
2019-05-03T13:45:37.005Z,52.74
2019-05-03T13:48:05.147Z,54.79
2019-05-03T13:50:35.008Z,52.10
2019-05-03T13:53:04.773Z,54.40
2019-05-03T13:55:32.655Z,53.89
2019-05-03T13:58:00.716Z,55.25
2019-05-03T14:00:28.745Z,55.24
2019-05-03T14:02:56.786Z,55.26
2019-05-03T14:05:24.807Z,56.28
2019-05-03T14:07:53.484Z,57.17
2019-05-03T14:10:21.563Z,55.30
2019-05-03T14:13:27.221Z,55.36
2019-05-03T14:19:14.669Z,54.23
2019-05-03T14:21:48.503Z,56.71
2019-05-03T14:24:16.980Z,53.57
2019-05-03T14:26:45.523Z,54.91
2019-05-03T14:29:14.848Z,55.80
2019-05-03T14:31:45.399Z,56.83
2019-05-03T14:34:17.318Z,54.21
2019-05-03T14:36:47.304Z,54.17
2019-05-03T14:39:15.398Z,53.08
2019-05-03T14:41:46.522Z,53.89
2019-05-03T14:44:17.219Z,53.86
2019-05-03T14:46:43.068Z,54.21
2019-05-03T14:49:11.062Z,54.23
2019-05-03T14:51:39.114Z,54.29
2019-05-03T14:54:08.056Z,52.53
2019-05-03T14:56:50.795Z,50.82
2019-05-03T14:59:36.396Z,50.88
2019-05-03T15:02:15.390Z,50.63
2019-05-03T15:04:42.633Z,49.73
2019-05-03T15:07:12.375Z,48.72
2019-05-03T15:09:40.473Z,48.53
2019-05-03T15:12:08.574Z,48.61
2019-05-03T15:14:36.591Z,48.39
2019-05-03T15:17:05.382Z,48.50
2019-05-03T15:19:34.889Z,47.62
2019-05-03T15:22:05.446Z,48.30
2019-05-03T15:24:34.619Z,48.31
2019-05-03T15:27:04.690Z,48.11
2019-05-03T15:29:32.535Z,47.61
2019-05-03T15:32:00.596Z,47.50
2019-05-03T15:34:28.612Z,47.00
2019-05-03T15:36:56.635Z,47.02
2019-05-03T15:39:24.665Z,46.16
2019-05-03T15:41:54.366Z,46.43
2019-05-03T15:44:48.023Z,46.61
2019-05-03T15:47:25.271Z,46.32
2019-05-03T15:49:52.882Z,45.89
2019-05-03T15:52:20.921Z,45.71
2019-05-03T15:54:48.966Z,46.15
2019-05-03T15:57:18.192Z,46.06
2019-05-03T15:59:46.289Z,46.27
2019-05-03T16:02:15.170Z,47.45
2019-05-03T16:04:44.850Z,48.85
2019-05-03T16:07:14.425Z,47.14
2019-05-03T16:09:44.414Z,46.93
2019-05-03T16:12:14.412Z,48.83
2019-05-03T16:14:49.819Z,49.09
2019-05-03T16:17:18.841Z,49.34
2019-05-03T16:19:47.705Z,50.04
2019-05-03T16:22:15.858Z,48.40
2019-05-03T16:24:44.768Z,47.72
2019-05-03T16:27:35.375Z,48.68
2019-05-03T16:30:05.093Z,49.58
2019-05-03T16:32:34.696Z,49.66
2019-05-03T16:35:04.465Z,49.79
2019-05-03T16:37:34.438Z,48.92
2019-05-03T16:40:02.590Z,49.02
2019-05-03T16:42:30.648Z,49.85
2019-05-03T16:44:58.652Z,49.21
2019-05-03T16:47:26.661Z,49.71
2019-05-03T16:49:54.783Z,49.48
2019-05-03T16:52:22.902Z,48.55
2019-05-03T16:54:50.964Z,47.51
2019-05-03T16:57:19.030Z,47.85
2019-05-03T16:59:47.039Z,47.01
2019-05-03T17:02:17.483Z,47.54
2019-05-03T17:04:50.603Z,47.56
2019-05-03T17:07:46.497Z,48.61
2019-05-03T17:10:30.789Z,48.79
2019-05-03T17:12:58.805Z,48.06
2019-05-03T17:15:26.836Z,47.94
2019-05-03T17:17:54.961Z,48.75
2019-05-03T17:20:22.924Z,48.23
2019-05-03T17:22:50.961Z,48.37
2019-05-03T17:25:19.100Z,48.66
2019-05-03T17:27:47.185Z,48.44
2019-05-03T17:30:15.399Z,48.28
2019-05-03T17:32:44.554Z,48.84
2019-05-03T17:35:14.470Z,48.69
2019-05-03T17:37:42.523Z,48.72
2019-05-03T17:40:41.512Z,48.85
2019-05-03T17:43:20.848Z,48.92
2019-05-03T17:45:51.782Z,48.58
2019-05-03T17:48:19.804Z,48.98
2019-05-03T17:50:47.794Z,48.94
2019-05-03T17:53:54.877Z,49.13
2019-05-03T17:56:50.486Z,49.33
2019-05-03T17:59:26.493Z,49.42
2019-05-03T18:02:16.283Z,49.24
2019-05-03T18:05:02.072Z,49.35
2019-05-03T18:10:36.827Z,49.72
2019-05-03T18:13:04.906Z,50.21
2019-05-03T18:15:34.505Z,49.94
2019-05-03T18:18:02.643Z,50.39
2019-05-03T18:20:30.681Z,50.69
2019-05-03T18:22:58.673Z,50.36
2019-05-03T18:25:26.717Z,50.21
2019-05-03T18:27:55.218Z,50.21
2019-05-03T18:30:23.489Z,50.21
2019-05-03T18:32:51.566Z,50.24
2019-05-03T18:35:19.590Z,50.30
2019-05-03T18:37:54.616Z,50.42
2019-05-03T18:40:24.742Z,50.33
2019-05-03T18:42:55.243Z,50.44
2019-05-03T18:45:47.937Z,50.45
2019-05-03T18:48:16.033Z,50.41
2019-05-03T18:50:45.604Z,50.43
2019-05-03T18:53:15.072Z,50.46
2019-05-03T18:55:44.423Z,50.59
2019-05-03T18:58:12.572Z,50.57
2019-05-03T19:00:40.705Z,50.48
2019-05-03T19:03:08.759Z,50.53
2019-05-03T19:05:38.403Z,50.61
2019-05-03T19:08:37.362Z,50.76
2019-05-03T19:11:10.793Z,50.64
2019-05-03T19:13:44.809Z,50.53
2019-05-03T19:16:28.046Z,50.50
2019-05-03T19:18:56.258Z,50.51
2019-05-03T19:21:24.623Z,50.46
2019-05-03T19:23:52.673Z,50.28
2019-05-03T19:26:20.689Z,50.28
2019-05-03T19:28:48.683Z,50.29
2019-05-03T19:31:16.792Z,50.03
2019-05-03T19:33:45.647Z,50.08
2019-05-03T19:36:13.783Z,50.06
2019-05-03T19:38:41.844Z,50.06
2019-05-03T19:41:09.955Z,49.98
2019-05-03T19:43:37.981Z,50.11
2019-05-03T19:46:07.462Z,50.11
2019-05-03T19:48:35.725Z,50.18
2019-05-03T19:51:05.602Z,49.81
2019-05-03T19:53:52.315Z,49.96
2019-05-03T19:56:25.484Z,50.12
2019-05-03T19:58:57.551Z,49.94
2019-05-03T20:01:44.377Z,49.88
2019-05-03T20:04:43.543Z,50.03
2019-05-03T20:07:34.677Z,49.99
2019-05-03T20:10:05.106Z,49.84
2019-05-03T20:12:32.925Z,49.83
2019-05-03T20:15:00.959Z,50.12
2019-05-03T20:17:29.023Z,50.14
2019-05-03T20:19:57.240Z,50.13
2019-05-03T20:22:25.288Z,50.23
2019-05-03T20:24:55.154Z,50.15
2019-05-03T20:27:24.462Z,50.43
2019-05-03T20:29:52.645Z,50.51
2019-05-03T20:32:20.747Z,50.58
2019-05-03T20:34:48.734Z,50.51
2019-05-03T20:37:16.753Z,50.54
2019-05-03T20:39:44.914Z,50.38
2019-05-03T20:42:15.669Z,50.22
2019-05-03T20:44:59.851Z,50.00
2019-05-03T20:47:31.256Z,50.15
2019-05-03T20:50:18.883Z,50.22
2019-05-03T20:52:46.889Z,50.34
2019-05-03T20:55:15.484Z,50.05
2019-05-03T20:57:44.462Z,49.87
2019-05-03T21:00:12.534Z,50.04
2019-05-03T21:02:50.817Z,49.86
2019-05-03T21:05:10.294Z,49.62
2019-05-03T21:07:38.725Z,49.68
2019-05-03T21:10:06.866Z,49.74
2019-05-03T21:12:34.947Z,50.01
2019-05-03T21:15:04.964Z,49.90
2019-05-03T21:17:55.614Z,50.02
2019-05-03T21:20:41.119Z,51.25
2019-05-03T21:23:10.433Z,52.01
2019-05-03T21:26:05.152Z,52.54
2019-05-03T21:28:16.150Z,52.18
2019-05-03T21:30:45.433Z,51.77
2019-05-03T21:33:15.631Z,51.59
2019-05-03T21:35:45.140Z,51.66
2019-05-03T21:38:13.359Z,51.98
2019-05-03T21:40:41.404Z,51.92
2019-05-03T21:43:09.470Z,51.62
2019-05-03T21:45:46.750Z,51.56
2019-05-03T21:48:19.534Z,51.62
2019-05-03T21:50:47.538Z,51.59
2019-05-03T21:53:15.622Z,51.70
2019-05-03T21:55:44.732Z,51.40
2019-05-03T21:58:16.121Z,51.23
2019-05-03T22:00:50.519Z,51.31
2019-05-03T22:03:18.480Z,52.57
2019-05-03T22:05:55.010Z,52.88
2019-05-03T22:08:16.428Z,53.09
2019-05-03T22:10:45.094Z,53.50
2019-05-03T22:13:15.383Z,53.53
2019-05-03T22:15:48.247Z,53.55
2019-05-03T22:18:24.680Z,53.23
2019-05-03T22:21:11.520Z,52.88
2019-05-03T22:23:59.614Z,52.97
2019-05-03T22:26:45.408Z,52.71
2019-05-03T22:29:14.401Z,52.72
2019-05-03T22:31:45.281Z,52.77
2019-05-03T22:34:15.094Z,52.34
2019-05-03T22:36:44.393Z,52.66
2019-05-03T22:39:12.669Z,52.41
2019-05-03T22:41:40.707Z,52.25
2019-05-03T22:44:08.719Z,52.15
2019-05-03T22:46:36.741Z,52.07
2019-05-03T22:49:05.023Z,51.93
2019-05-03T22:51:34.573Z,51.53
2019-05-03T22:54:04.594Z,52.17
2019-05-03T22:56:32.545Z,51.79
2019-05-03T22:59:00.683Z,52.31
2019-05-03T23:01:28.676Z,51.84
2019-05-03T23:03:56.724Z,52.08
2019-05-03T23:06:25.206Z,52.12
2019-05-03T23:08:55.942Z,51.92
2019-05-03T23:11:24.519Z,52.04
2019-05-03T23:14:05.263Z,51.86
2019-05-03T23:16:35.603Z,52.37
2019-05-03T23:19:05.500Z,52.48
2019-05-03T23:21:44.785Z,52.28
2019-05-03T23:24:12.806Z,52.57
2019-05-03T23:26:40.805Z,52.18
2019-05-03T23:29:08.891Z,52.61
2019-05-03T23:31:36.874Z,52.60
2019-05-03T23:34:05.033Z,52.70
2019-05-03T23:36:36.159Z,52.25
2019-05-03T23:39:02.808Z,52.68
2019-05-03T23:41:30.845Z,52.23
2019-05-03T23:43:58.875Z,52.75
2019-05-03T23:46:34.692Z,52.23
2019-05-03T23:49:02.651Z,52.21
2019-05-03T23:51:55.052Z,52.16
2019-05-03T23:54:24.722Z,51.99
2019-05-03T23:56:54.776Z,51.60
2019-05-03T23:59:22.847Z,51.77
